sensor_id;sensor_type;location;lat;lon;timestamp;pressure;altitude;pressure_sealevel;temperature;humidity
51287;BME280;37364;46.974;18.916;2023-04-25T00:02:11;152990.44;;;10.48;100.00
51287;BME280;37364;46.974;18.916;2023-04-25T00:04:42;152985.25;;;10.46;100.00
51287;BME280;37364;46.974;18.916;2023-04-25T00:07:16;152978.78;;;10.44;100.00
51287;BME280;37364;46.974;18.916;2023-04-25T00:09:46;152981.41;;;10.45;100.00
51287;BME280;37364;46.974;18.916;2023-04-25T00:12:16;152973.63;;;10.42;100.00
51287;BME280;37364;46.974;18.916;2023-04-25T00:14:49;152952.91;;;10.34;100.00
51287;BME280;37364;46.974;18.916;2023-04-25T00:17:19;152968.44;;;10.40;100.00
51287;BME280;37364;46.974;18.916;2023-04-25T00:19:51;152971.06;;;10.41;100.00
51287;BME280;37364;46.974;18.916;2023-04-25T00:22:23;152968.44;;;10.40;100.00
51287;BME280;37364;46.974;18.916;2023-04-25T00:24:57;152965.81;;;10.39;100.00
51287;BME280;37364;46.974;18.916;2023-04-25T00:27:30;152959.38;;;10.36;100.00
51287;BME280;37364;46.974;18.916;2023-04-25T00:30:03;152967.16;;;10.39;100.00
51287;BME280;37364;46.974;18.916;2023-04-25T00:32:36;152977.50;;;10.43;100.00
51287;BME280;37364;46.974;18.916;2023-04-25T00:35:09;152980.06;;;10.44;100.00
51287;BME280;37364;46.974;18.916;2023-04-25T00:37:42;152969.72;;;10.40;100.00
51287;BME280;37364;46.974;18.916;2023-04-25T00:40:17;152967.16;;;10.39;100.00
51287;BME280;37364;46.974;18.916;2023-04-25T00:42:53;152968.44;;;10.40;100.00
51287;BME280;37364;46.974;18.916;2023-04-25T00:45:30;152967.16;;;10.39;100.00
51287;BME280;37364;46.974;18.916;2023-04-25T00:48:01;152968.44;;;10.40;100.00
51287;BME280;37364;46.974;18.916;2023-04-25T00:50:33;152978.78;;;10.44;100.00
51287;BME280;37364;46.974;18.916;2023-04-25T00:53:04;152971.06;;;10.41;100.00
51287;BME280;37364;46.974;18.916;2023-04-25T00:55:37;152969.72;;;10.40;100.00
51287;BME280;37364;46.974;18.916;2023-04-25T00:58:07;152961.97;;;10.37;100.00
51287;BME280;37364;46.974;18.916;2023-04-25T01:00:40;152967.16;;;10.39;100.00
51287;BME280;37364;46.974;18.916;2023-04-25T01:03:12;152969.72;;;10.40;100.00
51287;BME280;37364;46.974;18.916;2023-04-25T01:05:43;152973.63;;;10.42;100.00
51287;BME280;37364;46.974;18.916;2023-04-25T01:08:14;152963.25;;;10.38;100.00
51287;BME280;37364;46.974;18.916;2023-04-25T01:10:44;152960.66;;;10.37;100.00
51287;BME280;37364;46.974;18.916;2023-04-25T01:13:15;152964.53;;;10.38;100.00
51287;BME280;37364;46.974;18.916;2023-04-25T01:15:49;152976.22;;;10.43;100.00
51287;BME280;37364;46.974;18.916;2023-04-25T01:18:23;152968.44;;;10.40;100.00
51287;BME280;37364;46.974;18.916;2023-04-25T01:20:55;152959.38;;;10.36;100.00
51287;BME280;37364;46.974;18.916;2023-04-25T01:23:33;152956.81;;;10.35;100.00
51287;BME280;37364;46.974;18.916;2023-04-25T01:26:06;152950.31;;;10.33;100.00
51287;BME280;37364;46.974;18.916;2023-04-25T01:28:37;152954.19;;;10.34;100.00
51287;BME280;37364;46.974;18.916;2023-04-25T01:31:12;152971.06;;;10.41;100.00
51287;BME280;37364;46.974;18.916;2023-04-25T01:33:45;152960.66;;;10.37;100.00
51287;BME280;37364;46.974;18.916;2023-04-25T01:36:16;152965.81;;;10.39;100.00
51287;BME280;37364;46.974;18.916;2023-04-25T01:38:50;152969.72;;;10.40;100.00
51287;BME280;37364;46.974;18.916;2023-04-25T01:41:23;152958.09;;;10.36;100.00
51287;BME280;37364;46.974;18.916;2023-04-25T01:43:53;152942.50;;;10.29;100.00
51287;BME280;37364;46.974;18.916;2023-04-25T01:46:24;152958.09;;;10.36;100.00
51287;BME280;37364;46.974;18.916;2023-04-25T01:48:57;152958.09;;;10.36;100.00
51287;BME280;37364;46.974;18.916;2023-04-25T01:51:27;152942.50;;;10.29;100.00
51287;BME280;37364;46.974;18.916;2023-04-25T01:54:01;152932.16;;;10.25;100.00
51287;BME280;37364;46.974;18.916;2023-04-25T01:56:32;152915.31;;;10.19;100.00
51287;BME280;37364;46.974;18.916;2023-04-25T01:59:05;152958.09;;;10.36;100.00
51287;BME280;37364;46.974;18.916;2023-04-25T02:02:04;152915.31;;;10.19;100.00
51287;BME280;37364;46.974;18.916;2023-04-25T02:04:35;152920.47;;;10.21;100.00
51287;BME280;37364;46.974;18.916;2023-04-25T02:07:06;152914.03;;;10.18;100.00
51287;BME280;37364;46.974;18.916;2023-04-25T02:09:56;152916.63;;;10.19;100.00
51287;BME280;37364;46.974;18.916;2023-04-25T02:12:31;152890.72;;;10.09;100.00
51287;BME280;37364;46.974;18.916;2023-04-25T02:15:24;152910.13;;;10.17;100.00
51287;BME280;37364;46.974;18.916;2023-04-25T02:17:58;152907.56;;;10.16;100.00
51287;BME280;37364;46.974;18.916;2023-04-25T02:20:30;152901.06;;;10.13;100.00
51287;BME280;37364;46.974;18.916;2023-04-25T02:23:01;152906.25;;;10.15;100.00
51287;BME280;37364;46.974;18.916;2023-04-25T02:25:35;152897.22;;;10.12;100.00
51287;BME280;37364;46.974;18.916;2023-04-25T02:28:05;152897.22;;;10.12;100.00
51287;BME280;37364;46.974;18.916;2023-04-25T02:30:36;152884.25;;;10.06;100.00
51287;BME280;37364;46.974;18.916;2023-04-25T02:33:07;152888.16;;;10.08;100.00
51287;BME280;37364;46.974;18.916;2023-04-25T02:35:37;152880.38;;;10.05;100.00
51287;BME280;37364;46.974;18.916;2023-04-25T02:38:07;152877.81;;;10.04;100.00
51287;BME280;37364;46.974;18.916;2023-04-25T02:40:42;152868.72;;;10.00;100.00
51287;BME280;37364;46.974;18.916;2023-04-25T02:43:12;152881.66;;;10.05;100.00
51287;BME280;37364;46.974;18.916;2023-04-25T02:45:43;152884.25;;;10.06;100.00
51287;BME280;37364;46.974;18.916;2023-04-25T02:48:13;152885.53;;;10.07;100.00
51287;BME280;37364;46.974;18.916;2023-04-25T02:50:44;152872.63;;;10.02;100.00
51287;BME280;37364;46.974;18.916;2023-04-25T02:53:14;152884.25;;;10.06;100.00
51287;BME280;37364;46.974;18.916;2023-04-25T02:55:51;152881.66;;;10.05;100.00
51287;BME280;37364;46.974;18.916;2023-04-25T02:58:21;152871.28;;;10.01;100.00
51287;BME280;37364;46.974;18.916;2023-04-25T03:00:53;152867.44;;;10.00;100.00
51287;BME280;37364;46.974;18.916;2023-04-25T03:03:24;152872.63;;;10.02;100.00
51287;BME280;37364;46.974;18.916;2023-04-25T03:05:54;152879.09;;;10.04;100.00
51287;BME280;37364;46.974;18.916;2023-04-25T03:08:30;152889.44;;;10.08;100.00
51287;BME280;37364;46.974;18.916;2023-04-25T03:11:06;152882.97;;;10.06;100.00
51287;BME280;37364;46.974;18.916;2023-04-25T03:13:37;152877.81;;;10.04;100.00
51287;BME280;37364;46.974;18.916;2023-04-25T03:16:09;152863.56;;;9.98;100.00
51287;BME280;37364;46.974;18.916;2023-04-25T03:18:39;152882.97;;;10.06;100.00
51287;BME280;37364;46.974;18.916;2023-04-25T03:21:10;152875.19;;;10.03;100.00
51287;BME280;37364;46.974;18.916;2023-04-25T03:23:40;152866.13;;;9.99;100.00
51287;BME280;37364;46.974;18.916;2023-04-25T03:26:13;152873.91;;;10.02;100.00
51287;BME280;37364;46.974;18.916;2023-04-25T03:28:43;152872.63;;;10.02;100.00
51287;BME280;37364;46.974;18.916;2023-04-25T03:31:14;152873.91;;;10.02;100.00
51287;BME280;37364;46.974;18.916;2023-04-25T03:33:44;152875.19;;;10.03;100.00
51287;BME280;37364;46.974;18.916;2023-04-25T03:36:16;152889.44;;;10.08;100.00
51287;BME280;37364;46.974;18.916;2023-04-25T03:38:47;152860.94;;;9.97;100.00
51287;BME280;37364;46.974;18.916;2023-04-25T03:41:22;152867.44;;;10.00;100.00
51287;BME280;37364;46.974;18.916;2023-04-25T03:43:57;152858.38;;;9.96;100.00
51287;BME280;37364;46.974;18.916;2023-04-25T03:46:27;152833.78;;;9.86;100.00
51287;BME280;37364;46.974;18.916;2023-04-25T03:48:57;152851.88;;;9.94;100.00
51287;BME280;37364;46.974;18.916;2023-04-25T03:51:46;152828.63;;;9.84;100.00
51287;BME280;37364;46.974;18.916;2023-04-25T03:54:17;152826.00;;;9.83;100.00
51287;BME280;37364;46.974;18.916;2023-04-25T03:57:07;152827.28;;;9.84;100.00
51287;BME280;37364;46.974;18.916;2023-04-25T03:59:39;152816.94;;;9.80;100.00
51287;BME280;37364;46.974;18.916;2023-04-25T04:02:11;152811.78;;;9.78;100.00
51287;BME280;37364;46.974;18.916;2023-04-25T04:04:42;152788.50;;;9.68;100.00
51287;BME280;37364;46.974;18.916;2023-04-25T04:07:14;152792.34;;;9.70;100.00
51287;BME280;37364;46.974;18.916;2023-04-25T04:09:47;152794.97;;;9.71;100.00
51287;BME280;37364;46.974;18.916;2023-04-25T04:12:29;152761.31;;;9.58;100.00
51287;BME280;37364;46.974;18.916;2023-04-25T04:15:02;152767.78;;;9.60;100.00
51287;BME280;37364;46.974;18.916;2023-04-25T04:17:33;152748.41;;;9.53;100.00
51287;BME280;37364;46.974;18.916;2023-04-25T04:20:05;152743.19;;;9.50;100.00
51287;BME280;37364;46.974;18.916;2023-04-25T04:22:37;152743.19;;;9.50;100.00
51287;BME280;37364;46.974;18.916;2023-04-25T04:25:11;152748.41;;;9.53;100.00
51287;BME280;37364;46.974;18.916;2023-04-25T04:28:02;152740.63;;;9.49;100.00
51287;BME280;37364;46.974;18.916;2023-04-25T04:30:54;152735.47;;;9.47;100.00
51287;BME280;37364;46.974;18.916;2023-04-25T04:33:25;152712.16;;;9.38;100.00
51287;BME280;37364;46.974;18.916;2023-04-25T04:36:00;152717.31;;;9.40;100.00
51287;BME280;37364;46.974;18.916;2023-04-25T04:38:31;152709.59;;;9.37;100.00
51287;BME280;37364;46.974;18.916;2023-04-25T04:41:03;152701.81;;;9.34;100.00
51287;BME280;37364;46.974;18.916;2023-04-25T04:44:15;152686.28;;;9.28;100.00
51287;BME280;37364;46.974;18.916;2023-04-25T04:47:04;152688.84;;;9.29;100.00
51287;BME280;37364;46.974;18.916;2023-04-25T04:49:54;152664.31;;;9.19;100.00
51287;BME280;37364;46.974;18.916;2023-04-25T04:52:41;152648.75;;;9.13;100.00
51287;BME280;37364;46.974;18.916;2023-04-25T04:55:37;152648.75;;;9.13;100.00
51287;BME280;37364;46.974;18.916;2023-04-25T04:58:31;152643.59;;;9.11;100.00
51287;BME280;37364;46.974;18.916;2023-04-25T05:01:15;152644.91;;;9.12;100.00
51287;BME280;37364;46.974;18.916;2023-04-25T05:04:15;152642.31;;;9.10;100.00
51287;BME280;37364;46.974;18.916;2023-04-25T05:06:58;152621.63;;;9.02;100.00
51287;BME280;37364;46.974;18.916;2023-04-25T05:09:42;152633.25;;;9.07;100.00
51287;BME280;37364;46.974;18.916;2023-04-25T05:12:41;152629.34;;;9.05;100.00
51287;BME280;37364;46.974;18.916;2023-04-25T05:15:12;152608.69;;;8.97;100.00
51287;BME280;37364;46.974;18.916;2023-04-25T05:18:03;152607.41;;;8.97;100.00
51287;BME280;37364;46.974;18.916;2023-04-25T05:20:59;152619.03;;;9.01;100.00
51287;BME280;37364;46.974;18.916;2023-04-25T05:23:48;152593.16;;;8.91;100.00
51287;BME280;37364;46.974;18.916;2023-04-25T05:26:37;152608.69;;;8.97;100.00
51287;BME280;37364;46.974;18.916;2023-04-25T05:29:31;152646.19;;;9.12;100.00
51287;BME280;37364;46.974;18.916;2023-04-25T05:32:13;152656.53;;;9.16;100.00
51287;BME280;37364;46.974;18.916;2023-04-25T05:34:50;152616.47;;;9.00;100.00
51287;BME280;37364;46.974;18.916;2023-04-25T05:37:27;152646.19;;;9.12;100.00
51287;BME280;37364;46.974;18.916;2023-04-25T05:40:08;152655.25;;;9.16;100.00
51287;BME280;37364;46.974;18.916;2023-04-25T05:42:58;152661.72;;;9.18;100.00
51287;BME280;37364;46.974;18.916;2023-04-25T05:45:50;152675.94;;;9.24;100.00
51287;BME280;37364;46.974;18.916;2023-04-25T05:48:39;152699.25;;;9.33;100.00
51287;BME280;37364;46.974;18.916;2023-04-25T05:51:35;152709.59;;;9.37;100.00
51287;BME280;37364;46.974;18.916;2023-04-25T05:54:14;152726.38;;;9.44;100.00
51287;BME280;37364;46.974;18.916;2023-04-25T05:56:45;152754.88;;;9.55;100.00
51287;BME280;37364;46.974;18.916;2023-04-25T05:59:15;152814.38;;;9.79;100.00
51287;BME280;37364;46.974;18.916;2023-04-25T06:01:45;152805.31;;;9.75;100.00
51287;BME280;37364;46.974;18.916;2023-04-25T06:04:16;152837.69;;;9.88;100.00
51287;BME280;37364;46.974;18.916;2023-04-25T06:06:50;152844.13;;;9.90;100.00
51287;BME280;37364;46.974;18.916;2023-04-25T06:09:21;152846.69;;;9.92;100.00
51287;BME280;37364;46.974;18.916;2023-04-25T06:11:53;152863.56;;;9.98;100.00
51287;BME280;37364;46.974;18.916;2023-04-25T06:14:23;152928.28;;;10.24;100.00
51287;BME280;37364;46.974;18.916;2023-04-25T06:16:55;152937.34;;;10.27;100.00
51287;BME280;37364;46.974;18.916;2023-04-25T06:19:26;152968.44;;;10.40;100.00
51287;BME280;37364;46.974;18.916;2023-04-25T06:21:59;152983.97;;;10.46;100.00
51287;BME280;37364;46.974;18.916;2023-04-25T06:24:34;152959.38;;;10.36;100.00
51287;BME280;37364;46.974;18.916;2023-04-25T06:27:04;152947.75;;;10.32;100.00
51287;BME280;37364;46.974;18.916;2023-04-25T06:29:35;152995.66;;;10.51;100.00
51287;BME280;37364;46.974;18.916;2023-04-25T06:32:05;152958.09;;;10.36;100.00
51287;BME280;37364;46.974;18.916;2023-04-25T06:34:35;153012.47;;;10.57;100.00
51287;BME280;37364;46.974;18.916;2023-04-25T06:37:09;152958.09;;;10.36;100.00
51287;BME280;37364;46.974;18.916;2023-04-25T06:39:39;152965.81;;;10.39;100.00
51287;BME280;37364;46.974;18.916;2023-04-25T06:42:10;152963.25;;;10.38;100.00
51287;BME280;37364;46.974;18.916;2023-04-25T06:44:52;152965.81;;;10.39;100.00
51287;BME280;37364;46.974;18.916;2023-04-25T06:47:23;152928.28;;;10.24;100.00
51287;BME280;37364;46.974;18.916;2023-04-25T06:49:54;152934.72;;;10.26;100.00
51287;BME280;37364;46.974;18.916;2023-04-25T06:52:27;152963.25;;;10.38;100.00
51287;BME280;37364;46.974;18.916;2023-04-25T06:55:00;152964.53;;;10.38;100.00
51287;BME280;37364;46.974;18.916;2023-04-25T06:57:44;152956.81;;;10.35;100.00
51287;BME280;37364;46.974;18.916;2023-04-25T07:00:34;152960.66;;;10.37;100.00
51287;BME280;37364;46.974;18.916;2023-04-25T07:03:05;152961.97;;;10.37;100.00
51287;BME280;37364;46.974;18.916;2023-04-25T07:05:35;152980.06;;;10.44;100.00
51287;BME280;37364;46.974;18.916;2023-04-25T07:08:11;152974.91;;;10.42;100.00
51287;BME280;37364;46.974;18.916;2023-04-25T07:10:42;153025.44;;;10.62;100.00
51287;BME280;37364;46.974;18.916;2023-04-25T07:13:15;153069.41;;;10.80;100.00
51287;BME280;37364;46.974;18.916;2023-04-25T07:15:46;153095.34;;;10.90;100.00
51287;BME280;37364;46.974;18.916;2023-04-25T07:18:18;153105.69;;;10.94;100.00
51287;BME280;37364;46.974;18.916;2023-04-25T07:20:49;153074.59;;;10.82;100.00
51287;BME280;37364;46.974;18.916;2023-04-25T07:23:27;153128.97;;;11.03;100.00
51287;BME280;37364;46.974;18.916;2023-04-25T07:26:00;153101.81;;;10.93;100.00
51287;BME280;37364;46.974;18.916;2023-04-25T07:28:30;153100.53;;;10.92;100.00
51287;BME280;37364;46.974;18.916;2023-04-25T07:31:01;153131.59;;;11.04;100.00
51287;BME280;37364;46.974;18.916;2023-04-25T07:33:33;153170.47;;;11.20;100.00
51287;BME280;37364;46.974;18.916;2023-04-25T07:36:04;153135.50;;;11.06;100.00
51287;BME280;37364;46.974;18.916;2023-04-25T07:38:37;153165.28;;;11.18;100.00
51287;BME280;37364;46.974;18.916;2023-04-25T07:41:08;153248.19;;;11.51;100.00
51287;BME280;37364;46.974;18.916;2023-04-25T07:43:38;153261.13;;;11.56;100.00
51287;BME280;37364;46.974;18.916;2023-04-25T07:46:08;153162.66;;;11.17;100.00
51287;BME280;37364;46.974;18.916;2023-04-25T07:48:42;153191.16;;;11.28;100.00
51287;BME280;37364;46.974;18.916;2023-04-25T07:51:12;153210.59;;;11.36;100.00
51287;BME280;37364;46.974;18.916;2023-04-25T07:53:45;153195.06;;;11.30;100.00
51287;BME280;37364;46.974;18.916;2023-04-25T07:56:17;153210.59;;;11.36;100.00
51287;BME280;37364;46.974;18.916;2023-04-25T07:58:48;153331.09;;;11.83;100.00
51287;BME280;37364;46.974;18.916;2023-04-25T08:01:20;153324.63;;;11.81;100.00
51287;BME280;37364;46.974;18.916;2023-04-25T08:03:57;153449.09;;;12.30;100.00
51287;BME280;37364;46.974;18.916;2023-04-25T08:06:46;153603.38;;;12.91;100.00
51287;BME280;37364;46.974;18.916;2023-04-25T08:09:25;153668.22;;;13.17;100.00
51287;BME280;37364;46.974;18.916;2023-04-25T08:11:57;153703.28;;;13.31;100.00
51287;BME280;37364;46.974;18.916;2023-04-25T08:14:30;153746.09;;;13.48;100.00
51287;BME280;37364;46.974;18.916;2023-04-25T08:17:04;153631.91;;;13.02;100.00
51287;BME280;37364;46.974;18.916;2023-04-25T08:19:39;153737.03;;;13.44;100.00
51287;BME280;37364;46.974;18.916;2023-04-25T08:22:23;153796.69;;;13.68;100.00
51287;BME280;37364;46.974;18.916;2023-04-25T08:25:12;153768.13;;;13.56;100.00
51287;BME280;37364;46.974;18.916;2023-04-25T08:27:43;153734.44;;;13.43;100.00
51287;BME280;37364;46.974;18.916;2023-04-25T08:30:14;153935.56;;;14.22;100.00
51287;BME280;37364;46.974;18.916;2023-04-25T08:32:45;153899.22;;;14.08;100.00
51287;BME280;37364;46.974;18.916;2023-04-25T08:35:36;153921.28;;;14.17;100.00
51287;BME280;37364;46.974;18.916;2023-04-25T08:38:06;153935.56;;;14.22;100.00
51287;BME280;37364;46.974;18.916;2023-04-25T08:40:40;153865.47;;;13.95;100.00
51287;BME280;37364;46.974;18.916;2023-04-25T08:43:15;153752.59;;;13.50;100.00
51287;BME280;37364;46.974;18.916;2023-04-25T08:45:48;153733.13;;;13.42;100.00
51287;BME280;37364;46.974;18.916;2023-04-25T08:48:32;153856.38;;;13.91;100.00
51287;BME280;37364;46.974;18.916;2023-04-25T08:51:07;153873.28;;;13.98;100.00
51287;BME280;37364;46.974;18.916;2023-04-25T08:53:39;153947.28;;;14.27;100.00
51287;BME280;37364;46.974;18.916;2023-04-25T08:56:16;153860.28;;;13.93;100.00
51287;BME280;37364;46.974;18.916;2023-04-25T08:58:48;153851.19;;;13.89;100.00
51287;BME280;37364;46.974;18.916;2023-04-25T09:01:19;154029.09;;;14.59;100.00
51287;BME280;37364;46.974;18.916;2023-04-25T09:03:53;153868.09;;;13.96;100.00
51287;BME280;37364;46.974;18.916;2023-04-25T09:06:24;153769.47;;;13.57;100.00
51287;BME280;37364;46.974;18.916;2023-04-25T09:09:01;153968.03;;;14.35;100.00
51287;BME280;37364;46.974;18.916;2023-04-25T09:11:35;154079.72;;;14.79;100.00
51287;BME280;37364;46.974;18.916;2023-04-25T09:14:16;153875.84;;;13.99;100.00
51287;BME280;37364;46.974;18.916;2023-04-25T09:17:13;153829.16;;;13.80;100.00
51287;BME280;37364;46.974;18.916;2023-04-25T09:19:47;154014.75;;;14.54;100.00
51287;BME280;37364;46.974;18.916;2023-04-25T09:22:26;154127.78;;;14.98;100.00
51287;BME280;37364;46.974;18.916;2023-04-25T09:24:57;154148.53;;;15.07;100.00
51287;BME280;37364;46.974;18.916;2023-04-25T09:27:34;154083.63;;;14.81;100.00
51287;BME280;37364;46.974;18.916;2023-04-25T09:30:15;153846.00;;;13.87;100.00
51287;BME280;37364;46.974;18.916;2023-04-25T09:33:04;153757.78;;;13.52;100.00
51287;BME280;37364;46.974;18.916;2023-04-25T09:35:37;153818.78;;;13.76;100.00
51287;BME280;37364;46.974;18.916;2023-04-25T09:38:14;153874.56;;;13.98;100.00
51287;BME280;37364;46.974;18.916;2023-04-25T09:41:22;153901.81;;;14.09;100.00
51287;BME280;37364;46.974;18.916;2023-04-25T09:43:59;153979.69;;;14.40;100.00
51287;BME280;37364;46.974;18.916;2023-04-25T09:46:35;153833.06;;;13.82;100.00
51287;BME280;37364;46.974;18.916;2023-04-25T09:49:14;153865.47;;;13.95;100.00
51287;BME280;37364;46.974;18.916;2023-04-25T09:51:54;153746.09;;;13.48;100.00
51287;BME280;37364;46.974;18.916;2023-04-25T09:54:31;153779.84;;;13.61;100.00
51287;BME280;37364;46.974;18.916;2023-04-25T09:57:11;153698.03;;;13.29;100.00
51287;BME280;37364;46.974;18.916;2023-04-25T09:59:48;153720.19;;;13.37;100.00
51287;BME280;37364;46.974;18.916;2023-04-25T10:02:20;153703.28;;;13.31;100.00
51287;BME280;37364;46.974;18.916;2023-04-25T10:04:55;153783.75;;;13.62;100.00
51287;BME280;37364;46.974;18.916;2023-04-25T10:07:36;153800.59;;;13.69;100.00
51287;BME280;37364;46.974;18.916;2023-04-25T10:10:14;153735.75;;;13.43;100.00
51287;BME280;37364;46.974;18.916;2023-04-25T10:12:46;153790.22;;;13.65;100.00
51287;BME280;37364;46.974;18.916;2023-04-25T10:15:19;153907.00;;;14.11;100.00
51287;BME280;37364;46.974;18.916;2023-04-25T10:17:51;153907.00;;;14.11;100.00
51287;BME280;37364;46.974;18.916;2023-04-25T10:20:22;153855.09;;;13.91;100.00
51287;BME280;37364;46.974;18.916;2023-04-25T10:22:54;153820.06;;;13.77;100.00
51287;BME280;37364;46.974;18.916;2023-04-25T10:25:25;153882.38;;;14.01;100.00
51287;BME280;37364;46.974;18.916;2023-04-25T10:27:56;153786.31;;;13.63;100.00
51287;BME280;37364;46.974;18.916;2023-04-25T10:30:29;153953.75;;;14.30;100.00
51287;BME280;37364;46.974;18.916;2023-04-25T10:32:59;154132.97;;;15.00;100.00
51287;BME280;37364;46.974;18.916;2023-04-25T10:35:30;154214.81;;;15.33;100.00
51287;BME280;37364;46.974;18.916;2023-04-25T10:38:03;154036.91;;;14.62;100.00
51287;BME280;37364;46.974;18.916;2023-04-25T10:40:34;154105.72;;;14.90;100.00
51287;BME280;37364;46.974;18.916;2023-04-25T10:46:17;154145.97;;;15.06;100.00
51287;BME280;37364;46.974;18.916;2023-04-25T10:48:49;154138.16;;;15.02;100.00
51287;BME280;37364;46.974;18.916;2023-04-25T10:51:23;154122.59;;;14.96;100.00
51287;BME280;37364;46.974;18.916;2023-04-25T10:54:02;153966.75;;;14.35;100.00
51287;BME280;37364;46.974;18.916;2023-04-25T10:56:35;154091.44;;;14.84;100.00
51287;BME280;37364;46.974;18.916;2023-04-25T10:59:07;153983.59;;;14.41;94.90
51287;BME280;37364;46.974;18.916;2023-04-25T11:01:41;154061.56;;;14.72;94.32
51287;BME280;37364;46.974;18.916;2023-04-25T11:04:22;154181.03;;;15.19;93.02
51287;BME280;37364;46.974;18.916;2023-04-25T11:07:02;154291.44;;;15.63;89.41
51287;BME280;37364;46.974;18.916;2023-04-25T11:09:37;154244.69;;;15.45;96.94
51287;BME280;37364;46.974;18.916;2023-04-25T11:12:09;154148.53;;;15.07;90.17
51287;BME280;37364;46.974;18.916;2023-04-25T11:14:41;154047.28;;;14.67;94.99
51287;BME280;37364;46.974;18.916;2023-04-25T11:17:13;154292.72;;;15.63;87.11
51287;BME280;37364;46.974;18.916;2023-04-25T11:19:43;154190.13;;;15.23;85.71
51287;BME280;37364;46.974;18.916;2023-04-25T11:22:18;154044.66;;;14.66;86.29
51287;BME280;37364;46.974;18.916;2023-04-25T11:24:48;154161.53;;;15.12;90.89
51287;BME280;37364;46.974;18.916;2023-04-25T11:27:18;154234.25;;;15.40;89.58
51287;BME280;37364;46.974;18.916;2023-04-25T11:29:51;154181.03;;;15.19;76.56
51287;BME280;37364;46.974;18.916;2023-04-25T11:32:27;154035.56;;;14.62;78.68
51287;BME280;37364;46.974;18.916;2023-04-25T11:34:57;154056.38;;;14.70;85.43
51287;BME280;37364;46.974;18.916;2023-04-25T11:37:28;154125.16;;;14.97;91.07
51287;BME280;37364;46.974;18.916;2023-04-25T11:39:58;154049.84;;;14.68;84.21
51287;BME280;37364;46.974;18.916;2023-04-25T11:42:30;154134.25;;;15.01;85.72
51287;BME280;37364;46.974;18.916;2023-04-25T11:45:00;154166.75;;;15.14;73.72
51287;BME280;37364;46.974;18.916;2023-04-25T11:47:33;154353.88;;;15.88;74.08
51287;BME280;37364;46.974;18.916;2023-04-25T11:50:05;154425.31;;;16.16;73.11
51287;BME280;37364;46.974;18.916;2023-04-25T11:52:37;154473.44;;;16.35;70.11
51287;BME280;37364;46.974;18.916;2023-04-25T11:55:10;154405.84;;;16.08;70.79
51287;BME280;37364;46.974;18.916;2023-04-25T11:57:43;154451.31;;;16.26;74.51
51287;BME280;37364;46.974;18.916;2023-04-25T12:00:15;154321.38;;;15.75;68.44
51287;BME280;37364;46.974;18.916;2023-04-25T12:02:51;154349.97;;;15.86;75.70
51287;BME280;37364;46.974;18.916;2023-04-25T12:05:24;154426.63;;;16.16;69.23
51287;BME280;37364;46.974;18.916;2023-04-25T12:08:12;154516.28;;;16.52;67.19
51287;BME280;37364;46.974;18.916;2023-04-25T12:10:45;154482.50;;;16.38;63.16
51287;BME280;37364;46.974;18.916;2023-04-25T12:13:20;154452.59;;;16.27;61.60
51287;BME280;37364;46.974;18.916;2023-04-25T12:15:52;154413.66;;;16.11;59.76
51287;BME280;37364;46.974;18.916;2023-04-25T12:18:26;154232.97;;;15.40;63.56
51287;BME280;37364;46.974;18.916;2023-04-25T12:20:58;154216.09;;;15.33;65.92
51287;BME280;37364;46.974;18.916;2023-04-25T12:23:31;154355.16;;;15.88;67.57
51287;BME280;37364;46.974;18.916;2023-04-25T12:26:02;154308.31;;;15.70;68.39
51287;BME280;37364;46.974;18.916;2023-04-25T12:28:32;154136.88;;;15.02;66.55
51287;BME280;37364;46.974;18.916;2023-04-25T12:31:04;154200.53;;;15.27;66.35
51287;BME280;37364;46.974;18.916;2023-04-25T12:33:38;154191.41;;;15.23;63.67
51287;BME280;37364;46.974;18.916;2023-04-25T12:36:09;154174.50;;;15.17;64.11
51287;BME280;37364;46.974;18.916;2023-04-25T12:38:41;154216.09;;;15.33;63.30
51287;BME280;37364;46.974;18.916;2023-04-25T12:41:12;154164.13;;;15.13;60.45
51287;BME280;37364;46.974;18.916;2023-04-25T12:43:42;154200.53;;;15.27;62.16
51287;BME280;37364;46.974;18.916;2023-04-25T12:46:12;154260.28;;;15.51;63.18
51287;BME280;37364;46.974;18.916;2023-04-25T12:48:45;154379.84;;;15.98;61.91
51287;BME280;37364;46.974;18.916;2023-04-25T12:51:15;154453.94;;;16.27;60.53
51287;BME280;37364;46.974;18.916;2023-04-25T12:53:46;154486.41;;;16.40;58.04
51287;BME280;37364;46.974;18.916;2023-04-25T12:56:16;154599.56;;;16.85;60.99
51287;BME280;37364;46.974;18.916;2023-04-25T12:58:50;154573.53;;;16.74;57.20
51287;BME280;37364;46.974;18.916;2023-04-25T13:01:20;154654.19;;;17.06;57.80
51287;BME280;37364;46.974;18.916;2023-04-25T13:03:56;154598.28;;;16.84;54.03
51287;BME280;37364;46.974;18.916;2023-04-25T13:06:27;154656.81;;;17.07;55.22
51287;BME280;37364;46.974;18.916;2023-04-25T13:08:58;154626.84;;;16.95;53.95
51287;BME280;37364;46.974;18.916;2023-04-25T13:11:28;154500.72;;;16.46;53.01
51287;BME280;37364;46.974;18.916;2023-04-25T13:13:58;154456.50;;;16.28;53.60
51287;BME280;37364;46.974;18.916;2023-04-25T13:16:29;154539.72;;;16.61;54.66